createdAt,value
2022-08-22T00:00:04.522Z,99.11
2022-08-22T00:01:04.520Z,98.68
2022-08-22T00:02:04.575Z,98.82
2022-08-22T00:02:41.797Z,78.83
2022-08-22T00:02:53.246Z,82.86
2022-08-22T00:02:55.723Z,99.99
2022-08-22T00:03:02.620Z,95.74
2022-08-22T00:03:04.494Z,78.64
2022-08-22T00:03:08.058Z,99.99
2022-08-22T00:03:16.331Z,92.03
2022-08-22T00:04:04.498Z,99.99
2022-08-22T00:05:04.494Z,99.99
2022-08-22T00:06:04.485Z,99.99
2022-08-22T00:07:04.480Z,99.99
2022-08-22T00:08:04.472Z,99.99
2022-08-22T00:09:04.467Z,99.99
2022-08-22T00:10:04.459Z,99.99
2022-08-22T00:11:04.456Z,99.99
2022-08-22T00:12:04.446Z,99.99
2022-08-22T00:13:04.442Z,99.99
2022-08-22T00:14:04.435Z,99.99
2022-08-22T00:15:04.529Z,99.99
2022-08-22T00:16:04.422Z,99.99
2022-08-22T00:17:04.417Z,99.99
2022-08-22T00:18:05.593Z,99.99
2022-08-22T00:19:04.404Z,99.99
2022-08-22T00:20:04.396Z,99.99
2022-08-22T00:21:04.400Z,99.99
2022-08-22T00:22:04.383Z,99.99
2022-08-22T00:23:04.378Z,99.99
2022-08-22T00:24:04.371Z,99.99
2022-08-22T00:25:04.367Z,99.99
2022-08-22T00:26:04.383Z,99.99
2022-08-22T00:27:04.363Z,99.99
2022-08-22T00:28:04.345Z,99.99
2022-08-22T00:29:04.344Z,99.99
2022-08-22T00:30:04.332Z,99.99
2022-08-22T00:31:04.329Z,99.88
2022-08-22T00:32:04.319Z,99.78
2022-08-22T00:33:04.317Z,99.88
2022-08-22T00:34:04.312Z,99.99
2022-08-22T00:35:04.303Z,99.99
2022-08-22T00:36:04.295Z,99.99
2022-08-22T00:37:04.290Z,99.99
2022-08-22T00:38:04.282Z,99.99
2022-08-22T00:39:04.277Z,99.99
2022-08-22T00:40:04.333Z,99.99
2022-08-22T00:41:04.268Z,99.99
2022-08-22T00:42:04.257Z,99.99
2022-08-22T00:43:04.250Z,99.99
2022-08-22T00:44:04.293Z,99.99
2022-08-22T00:45:04.237Z,99.99
2022-08-22T00:46:04.230Z,99.99
2022-08-22T00:47:04.226Z,99.99
2022-08-22T00:48:04.215Z,99.99
2022-08-22T00:49:04.214Z,99.99
2022-08-22T00:50:04.205Z,99.99
2022-08-22T00:51:04.199Z,99.99
2022-08-22T00:52:04.193Z,99.99
2022-08-22T00:53:04.189Z,99.99
2022-08-22T00:54:04.178Z,99.99
2022-08-22T00:55:04.177Z,99.99
2022-08-22T00:56:04.163Z,99.99
2022-08-22T00:57:04.161Z,99.99
2022-08-22T00:58:04.153Z,99.99
2022-08-22T00:59:22.684Z,99.99
2022-08-22T01:00:04.139Z,99.99
2022-08-22T01:01:04.212Z,99.99
2022-08-22T01:02:04.130Z,99.99
2022-08-22T01:03:04.122Z,99.99
2022-08-22T01:04:04.112Z,99.99
2022-08-22T01:05:04.108Z,99.99
2022-08-22T01:06:04.101Z,99.99
2022-08-22T01:07:04.093Z,99.99
2022-08-22T01:08:04.085Z,99.99
2022-08-22T01:09:04.092Z,99.99
2022-08-22T01:10:04.074Z,99.99
2022-08-22T01:11:04.068Z,99.99
2022-08-22T01:12:04.061Z,99.99
2022-08-22T01:13:04.057Z,99.99
2022-08-22T01:14:04.047Z,99.99
2022-08-22T01:15:04.043Z,99.99
2022-08-22T01:16:04.045Z,99.99
2022-08-22T01:17:04.030Z,99.99
2022-08-22T01:18:04.021Z,99.99
2022-08-22T01:19:04.016Z,99.99
2022-08-22T01:20:04.007Z,99.99
2022-08-22T01:21:04.001Z,99.99
2022-08-22T01:22:03.994Z,99.99
2022-08-22T01:23:03.988Z,99.99
2022-08-22T01:24:03.982Z,99.99
2022-08-22T01:25:03.975Z,99.99
2022-08-22T01:26:03.968Z,99.99
2022-08-22T01:27:03.965Z,99.99
2022-08-22T01:28:03.959Z,99.99
2022-08-22T01:29:03.949Z,99.99
2022-08-22T01:30:03.946Z,99.99
2022-08-22T01:31:03.934Z,99.99
2022-08-22T01:32:03.925Z,99.99
2022-08-22T01:33:03.922Z,99.99
2022-08-22T01:34:03.914Z,99.99
2022-08-22T01:35:03.908Z,99.99
2022-08-22T01:36:03.910Z,99.99
2022-08-22T01:37:03.899Z,99.99
2022-08-22T01:38:03.888Z,99.99
2022-08-22T01:39:03.880Z,99.99
2022-08-22T01:40:04.022Z,99.99
2022-08-22T01:41:03.866Z,99.99
2022-08-22T01:42:03.859Z,99.99
2022-08-22T01:43:03.854Z,99.99
2022-08-22T01:44:03.844Z,99.99
2022-08-22T01:45:03.841Z,99.99
2022-08-22T01:46:03.830Z,99.99
2022-08-22T01:47:03.829Z,99.99
2022-08-22T01:48:03.818Z,99.99
2022-08-22T01:49:03.812Z,99.99
2022-08-22T01:50:03.803Z,99.99
2022-08-22T01:51:03.798Z,99.99
2022-08-22T01:52:03.795Z,99.99
2022-08-22T01:53:03.785Z,99.99
2022-08-22T01:54:03.825Z,99.99
2022-08-22T01:55:03.770Z,99.99
2022-08-22T01:56:03.763Z,99.99
2022-08-22T01:57:03.759Z,99.99
2022-08-22T01:58:03.761Z,99.99
2022-08-22T01:59:03.743Z,99.99
2022-08-22T02:00:03.733Z,99.99
2022-08-22T02:01:03.795Z,99.99
2022-08-22T02:02:03.720Z,99.99
2022-08-22T02:03:03.714Z,99.99
2022-08-22T02:04:03.707Z,99.99
2022-08-22T02:05:03.704Z,99.99
2022-08-22T02:06:03.696Z,99.99
2022-08-22T02:07:03.690Z,99.99
2022-08-22T02:08:03.679Z,99.99
2022-08-22T02:09:03.687Z,99.99
2022-08-22T02:10:03.667Z,99.99
2022-08-22T02:11:03.660Z,99.99
2022-08-22T02:12:03.650Z,99.99
2022-08-22T02:13:03.645Z,99.99
2022-08-22T02:14:03.637Z,99.99
2022-08-22T02:15:03.631Z,99.99
2022-08-22T02:16:03.625Z,99.99
2022-08-22T02:17:03.618Z,99.99
2022-08-22T02:18:03.609Z,99.99
2022-08-22T02:19:03.602Z,99.99
2022-08-22T02:20:03.595Z,99.99
2022-08-22T02:21:03.590Z,99.99
2022-08-22T02:22:03.581Z,99.99
2022-08-22T02:23:03.574Z,99.99
2022-08-22T02:24:03.569Z,99.99
2022-08-22T02:25:03.561Z,99.99
2022-08-22T02:26:03.554Z,99.99
2022-08-22T02:27:03.546Z,99.99
2022-08-22T02:28:03.554Z,99.99
2022-08-22T02:29:03.532Z,99.99
2022-08-22T02:30:03.522Z,99.99
2022-08-22T02:31:03.518Z,99.99
2022-08-22T02:32:03.507Z,99.99
2022-08-22T02:33:03.503Z,99.99
2022-08-22T02:34:03.494Z,99.99
2022-08-22T02:35:03.487Z,99.99
2022-08-22T02:36:03.479Z,99.99
2022-08-22T02:37:03.474Z,99.99
2022-08-22T02:38:03.466Z,99.99
2022-08-22T02:39:03.458Z,99.99
2022-08-22T02:40:03.465Z,99.99
2022-08-22T02:41:03.544Z,99.99
2022-08-22T02:42:03.435Z,99.99
2022-08-22T02:43:03.429Z,99.99
2022-08-22T02:44:03.419Z,99.99
2022-08-22T02:45:03.416Z,99.99
2022-08-22T02:46:03.406Z,99.99
2022-08-22T02:47:03.400Z,99.99
2022-08-22T02:48:03.391Z,99.99
2022-08-22T02:49:03.386Z,99.99
2022-08-22T02:50:03.377Z,99.99
2022-08-22T02:51:03.371Z,99.99
2022-08-22T02:52:03.361Z,99.99
2022-08-22T02:53:03.359Z,99.99
2022-08-22T02:54:03.446Z,99.99
2022-08-22T02:55:03.341Z,99.99
2022-08-22T02:56:03.344Z,99.99
2022-08-22T02:57:03.326Z,99.99
2022-08-22T02:58:03.317Z,99.99
2022-08-22T02:59:03.311Z,99.99
2022-08-22T03:00:03.305Z,99.99
2022-08-22T03:01:03.323Z,99.99
2022-08-22T03:02:03.288Z,99.99
2022-08-22T03:03:03.282Z,99.99
2022-08-22T03:04:03.271Z,99.99
2022-08-22T03:05:03.267Z,99.99
2022-08-22T03:06:03.266Z,99.99
2022-08-22T03:07:03.252Z,99.99
2022-08-22T03:08:03.243Z,99.99
2022-08-22T03:09:03.238Z,99.99
2022-08-22T03:10:03.230Z,99.99
2022-08-22T03:11:03.225Z,99.99
2022-08-22T03:12:03.212Z,99.99
2022-08-22T03:13:03.207Z,99.99
2022-08-22T03:14:03.197Z,99.99
2022-08-22T03:15:03.207Z,99.99
2022-08-22T03:16:03.182Z,99.99
2022-08-22T03:17:03.177Z,99.99
2022-08-22T03:18:03.168Z,99.99
2022-08-22T03:19:03.161Z,99.99
2022-08-22T03:20:03.152Z,99.99
2022-08-22T03:21:03.146Z,99.99
2022-08-22T03:22:03.138Z,99.99
2022-08-22T03:23:03.130Z,99.99
2022-08-22T03:24:03.125Z,99.99
2022-08-22T03:25:03.114Z,99.99
2022-08-22T03:26:07.532Z,99.99
2022-08-22T03:27:03.105Z,99.99
2022-08-22T03:28:03.281Z,99.99
2022-08-22T03:29:03.086Z,99.99
2022-08-22T03:30:03.076Z,99.99
2022-08-22T03:31:03.070Z,99.99
2022-08-22T03:32:03.059Z,99.99
2022-08-22T03:33:03.056Z,99.99
2022-08-22T03:34:03.045Z,99.99
2022-08-22T03:35:03.038Z,99.99
2022-08-22T03:36:03.033Z,99.99
2022-08-22T03:37:03.022Z,99.99
2022-08-22T03:38:03.017Z,99.99
2022-08-22T03:39:03.010Z,99.99
2022-08-22T03:40:03.092Z,99.99
2022-08-22T03:41:02.991Z,99.99
2022-08-22T03:42:02.987Z,99.99
2022-08-22T03:43:02.977Z,99.99
2022-08-22T03:44:02.969Z,99.99
2022-08-22T03:45:02.960Z,99.99
2022-08-22T03:46:02.960Z,99.99
2022-08-22T03:47:02.945Z,99.99
2022-08-22T03:48:02.939Z,99.99
2022-08-22T03:49:02.929Z,99.99
2022-08-22T03:50:02.925Z,99.99
2022-08-22T03:51:02.915Z,99.99
2022-08-22T03:52:02.908Z,99.99
2022-08-22T03:53:02.899Z,99.99
2022-08-22T03:54:02.894Z,99.99
2022-08-22T03:55:02.884Z,99.99
2022-08-22T03:56:02.876Z,99.99
2022-08-22T03:57:02.868Z,99.99
2022-08-22T03:58:02.861Z,99.99
2022-08-22T03:59:02.851Z,99.99
2022-08-22T04:00:02.847Z,99.99
2022-08-22T04:01:02.876Z,99.99
2022-08-22T04:02:02.831Z,99.99
2022-08-22T04:03:03.072Z,99.99
2022-08-22T04:04:02.863Z,99.99
2022-08-22T04:05:02.805Z,99.99
2022-08-22T04:06:02.803Z,99.99
2022-08-22T04:07:02.790Z,99.99
2022-08-22T04:08:02.783Z,99.99
2022-08-22T04:09:02.774Z,99.99
2022-08-22T04:10:02.767Z,99.99
2022-08-22T04:11:02.757Z,99.99
2022-08-22T04:12:02.751Z,99.99
2022-08-22T04:13:02.741Z,99.99
2022-08-22T04:14:02.735Z,99.99
2022-08-22T04:15:02.725Z,99.99
2022-08-22T04:16:02.720Z,99.99
2022-08-22T04:17:02.711Z,99.99
2022-08-22T04:18:02.704Z,99.99
2022-08-22T04:19:02.693Z,99.99
2022-08-22T04:20:02.689Z,99.99
2022-08-22T04:21:02.677Z,99.99
2022-08-22T04:22:02.672Z,99.99
2022-08-22T04:23:02.662Z,99.99
2022-08-22T04:24:02.656Z,99.99
2022-08-22T04:25:07.143Z,99.99
2022-08-22T04:26:08.549Z,99.99
2022-08-22T04:27:02.629Z,99.99
2022-08-22T04:28:02.631Z,99.99
2022-08-22T04:29:02.612Z,99.99
2022-08-22T04:30:02.612Z,99.99
2022-08-22T04:31:02.599Z,99.99
2022-08-22T04:32:02.591Z,99.99
2022-08-22T04:33:02.581Z,99.99
2022-08-22T04:34:02.576Z,99.99
2022-08-22T04:35:02.566Z,99.99
2022-08-22T04:36:02.567Z,99.99
2022-08-22T04:37:02.550Z,99.99
2022-08-22T04:38:02.552Z,99.99
2022-08-22T04:39:02.533Z,99.99
2022-08-22T04:40:02.579Z,99.99
2022-08-22T04:41:04.568Z,99.99
2022-08-22T04:42:28.783Z,99.99
2022-08-22T04:43:03.543Z,99.99
2022-08-22T04:44:02.494Z,99.99
2022-08-22T04:46:02.478Z,99.99
2022-08-22T04:47:02.471Z,99.99
2022-08-22T04:48:02.461Z,99.99
2022-08-22T04:49:02.454Z,99.99
2022-08-22T04:50:02.457Z,99.99
2022-08-22T04:51:02.437Z,99.99
2022-08-22T04:52:02.429Z,99.99
2022-08-22T04:53:02.423Z,99.99
2022-08-22T04:54:02.463Z,99.99
2022-08-22T04:55:02.408Z,99.99
2022-08-22T04:56:07.132Z,99.99
2022-08-22T04:57:02.390Z,99.99
2022-08-22T04:58:02.380Z,99.99
2022-08-22T04:59:02.993Z,99.99
2022-08-22T05:00:02.365Z,99.99
2022-08-22T05:01:02.358Z,99.99
2022-08-22T05:02:02.411Z,99.99
2022-08-22T05:03:02.342Z,99.99
2022-08-22T05:04:02.336Z,99.99
2022-08-22T05:05:02.326Z,99.99
2022-08-22T05:06:02.314Z,99.99
2022-08-22T05:07:02.309Z,99.99
2022-08-22T05:08:02.299Z,99.99
2022-08-22T05:09:02.294Z,99.99
2022-08-22T05:10:09.326Z,99.99
2022-08-22T05:11:02.277Z,99.99
2022-08-22T05:12:02.266Z,99.99
2022-08-22T05:13:02.264Z,99.99
2022-08-22T05:14:02.251Z,99.99
2022-08-22T05:15:02.344Z,99.99
2022-08-22T05:16:02.234Z,99.99
2022-08-22T05:17:02.231Z,99.99
2022-08-22T05:18:02.222Z,99.99
2022-08-22T05:19:02.214Z,99.99
2022-08-22T05:20:02.204Z,99.99
2022-08-22T05:21:02.201Z,99.99
2022-08-22T05:22:02.191Z,99.99
2022-08-22T05:23:02.183Z,99.99
2022-08-22T05:24:02.172Z,99.99
2022-08-22T05:25:02.168Z,99.99
2022-08-22T05:26:02.159Z,99.99
2022-08-22T05:27:02.154Z,99.99
2022-08-22T05:28:02.142Z,99.99
2022-08-22T05:29:02.138Z,99.99
2022-08-22T05:30:02.130Z,99.99
2022-08-22T05:31:02.123Z,99.99
2022-08-22T05:32:02.122Z,99.99
2022-08-22T05:33:02.114Z,99.99
2022-08-22T05:34:02.101Z,99.99
2022-08-22T05:35:02.097Z,99.99
2022-08-22T05:36:02.085Z,99.99
2022-08-22T05:37:02.081Z,99.99
2022-08-22T05:38:02.072Z,99.69
2022-08-22T05:39:02.067Z,99.88
2022-08-22T05:40:02.162Z,99.49
2022-08-22T05:41:02.055Z,99.78
2022-08-22T05:42:02.044Z,99.30
2022-08-22T05:43:02.039Z,99.21
2022-08-22T05:44:02.031Z,99.59
2022-08-22T05:45:02.049Z,99.26
2022-08-22T05:46:02.018Z,99.16
2022-08-22T05:47:02.021Z,98.97
2022-08-22T05:48:02.017Z,99.16
2022-08-22T05:49:01.998Z,99.54
2022-08-22T05:50:01.992Z,99.99
2022-08-22T05:51:01.986Z,99.84
2022-08-22T05:52:01.983Z,99.93
2022-08-22T05:53:01.977Z,99.99
2022-08-22T05:54:01.968Z,99.26
2022-08-22T05:55:01.960Z,99.44
2022-08-22T05:56:01.951Z,99.26
2022-08-22T05:57:06.067Z,99.26
2022-08-22T05:58:01.940Z,99.44
2022-08-22T05:59:01.938Z,98.97
2022-08-22T06:00:01.927Z,99.02
2022-08-22T06:01:01.922Z,98.10
2022-08-22T06:02:01.980Z,97.86
2022-08-22T06:03:01.912Z,97.57
2022-08-22T06:04:01.900Z,97.76
2022-08-22T06:05:01.898Z,97.57
2022-08-22T06:06:01.890Z,98.15
2022-08-22T06:07:01.887Z,97.38
2022-08-22T06:08:01.878Z,97.28
2022-08-22T06:09:01.874Z,96.89
2022-08-22T06:10:01.866Z,96.70
2022-08-22T06:11:01.868Z,96.03
2022-08-22T06:12:01.855Z,96.61
2022-08-22T06:13:01.851Z,97.57
2022-08-22T06:14:01.844Z,97.33
2022-08-22T06:15:01.841Z,96.70
2022-08-22T06:16:01.831Z,96.46
2022-08-22T06:17:01.830Z,96.27
2022-08-22T06:18:01.820Z,95.40
2022-08-22T06:19:01.915Z,95.98
2022-08-22T06:20:01.810Z,95.50
2022-08-22T06:21:01.809Z,95.89
2022-08-22T06:22:01.798Z,94.44
2022-08-22T06:23:01.794Z,93.96
2022-08-22T06:24:01.786Z,94.15
2022-08-22T06:25:01.782Z,93.86
2022-08-22T06:26:01.776Z,94.06
2022-08-22T06:27:01.773Z,94.24
2022-08-22T06:28:01.763Z,94.54
2022-08-22T06:29:01.760Z,94.34
2022-08-22T06:30:01.754Z,93.96
2022-08-22T06:31:01.754Z,94.00
2022-08-22T06:32:01.742Z,93.91
2022-08-22T06:33:01.754Z,93.62
2022-08-22T06:34:01.733Z,93.91
2022-08-22T06:35:01.728Z,93.71
2022-08-22T06:36:01.721Z,93.62
2022-08-22T06:37:01.718Z,93.23
2022-08-22T06:38:01.711Z,94.00
2022-08-22T06:39:01.705Z,93.91
2022-08-22T06:40:01.783Z,93.23
2022-08-22T06:41:01.697Z,93.23
2022-08-22T06:42:01.690Z,92.94
2022-08-22T06:43:01.686Z,93.43
2022-08-22T06:44:01.678Z,93.91
2022-08-22T06:45:01.676Z,93.23
2022-08-22T06:46:01.670Z,93.52
2022-08-22T06:47:01.664Z,93.91
2022-08-22T06:48:01.877Z,94.39
2022-08-22T06:49:01.654Z,93.13
2022-08-22T06:50:01.648Z,93.52
2022-08-22T06:51:01.645Z,93.33
2022-08-22T06:52:01.639Z,93.37
2022-08-22T06:53:01.634Z,93.47
2022-08-22T06:54:01.632Z,92.60
2022-08-22T06:55:01.625Z,92.60
2022-08-22T06:56:01.618Z,93.04
2022-08-22T06:57:01.615Z,93.23
2022-08-22T06:58:01.608Z,92.41
2022-08-22T06:59:01.704Z,92.22
2022-08-22T07:00:01.598Z,92.60
2022-08-22T07:01:11.172Z,92.99
2022-08-22T07:02:01.624Z,92.70
2022-08-22T07:03:01.585Z,92.50
2022-08-22T07:04:01.580Z,92.60
2022-08-22T07:05:01.577Z,92.02
2022-08-22T07:06:01.570Z,92.46
2022-08-22T07:07:01.566Z,92.26
2022-08-22T07:08:01.560Z,92.07
2022-08-22T07:09:05.566Z,91.68
2022-08-22T07:10:01.559Z,91.59
2022-08-22T07:11:01.546Z,91.01
2022-08-22T07:12:01.550Z,90.62
2022-08-22T07:13:01.544Z,90.43
2022-08-22T07:14:01.531Z,91.30
2022-08-22T07:15:01.529Z,91.30
2022-08-22T07:16:01.524Z,90.57
2022-08-22T07:17:01.570Z,89.89
2022-08-22T07:18:01.514Z,89.51
2022-08-22T07:19:01.510Z,89.61
2022-08-22T07:20:01.505Z,89.70
2022-08-22T07:21:01.502Z,88.87
2022-08-22T07:22:01.497Z,88.78
2022-08-22T07:23:01.497Z,88.78
2022-08-22T07:24:01.486Z,88.01
2022-08-22T07:25:01.484Z,88.29
2022-08-22T07:26:01.479Z,88.01
2022-08-22T07:27:01.478Z,88.39
2022-08-22T07:28:03.703Z,87.52
2022-08-22T07:29:01.471Z,88.29
2022-08-22T07:30:01.462Z,88.49
2022-08-22T07:31:01.476Z,88.49
2022-08-22T07:32:01.453Z,88.39
2022-08-22T07:33:20.980Z,88.01
2022-08-22T07:34:01.445Z,87.52
2022-08-22T07:35:01.443Z,87.66
2022-08-22T07:36:01.456Z,87.13
2022-08-22T07:37:01.442Z,87.33
2022-08-22T07:38:01.643Z,87.04
2022-08-22T07:39:01.427Z,86.60
2022-08-22T07:40:01.459Z,87.08
2022-08-22T07:41:01.420Z,86.89
2022-08-22T07:42:01.414Z,87.37
2022-08-22T07:43:01.415Z,86.11
2022-08-22T07:44:01.406Z,85.93
2022-08-22T07:45:01.405Z,85.83
2022-08-22T07:46:01.399Z,85.93
2022-08-22T07:47:01.498Z,85.87
2022-08-22T07:48:01.529Z,86.25
2022-08-22T07:49:10.051Z,85.97
2022-08-22T07:50:01.384Z,86.55
2022-08-22T07:51:01.382Z,86.83
2022-08-22T07:52:01.377Z,87.41
2022-08-22T07:53:01.376Z,85.97
2022-08-22T07:54:01.371Z,86.83
2022-08-22T07:55:01.365Z,85.62
2022-08-22T07:56:01.365Z,84.80
2022-08-22T07:57:01.359Z,85.10
2022-08-22T07:58:01.358Z,84.75
2022-08-22T07:59:01.353Z,84.46
2022-08-22T08:00:01.350Z,85.24
2022-08-22T08:01:01.377Z,84.84
2022-08-22T08:02:01.345Z,84.84
2022-08-22T08:03:01.338Z,85.04
2022-08-22T08:04:01.344Z,85.52
2022-08-22T08:05:01.383Z,85.72
2022-08-22T08:06:01.332Z,84.84
2022-08-22T08:07:01.327Z,84.94
2022-08-22T08:08:01.325Z,84.46
2022-08-22T08:09:01.522Z,84.17
2022-08-22T08:10:01.320Z,83.49
2022-08-22T08:11:01.313Z,83.98
2022-08-22T08:12:01.312Z,84.56
2022-08-22T08:13:02.507Z,83.69
2022-08-22T08:14:01.310Z,84.17
2022-08-22T08:15:01.300Z,82.81
2022-08-22T08:16:01.304Z,83.11
2022-08-22T08:17:01.295Z,83.11
2022-08-22T08:18:01.356Z,83.49
2022-08-22T08:19:01.290Z,84.13
2022-08-22T08:20:01.287Z,84.22
2022-08-22T08:21:01.282Z,85.87
2022-08-22T08:22:01.281Z,85.10
2022-08-22T08:23:01.275Z,85.33
2022-08-22T08:24:01.275Z,83.40
2022-08-22T08:25:01.269Z,82.37
2022-08-22T08:26:01.267Z,82.43
2022-08-22T08:27:01.265Z,82.57
2022-08-22T08:28:01.345Z,82.57
2022-08-22T08:29:01.256Z,81.21
2022-08-22T08:30:01.357Z,78.99
2022-08-22T08:31:01.249Z,80.20
2022-08-22T08:32:01.249Z,80.20
2022-08-22T08:33:24.787Z,81.56
2022-08-22T08:34:01.252Z,81.02
2022-08-22T08:35:01.235Z,81.21
2022-08-22T08:36:02.626Z,81.12
2022-08-22T08:37:01.282Z,81.35
2022-08-22T08:38:01.233Z,80.96
2022-08-22T08:39:01.225Z,81.05
2022-08-22T08:40:01.286Z,80.19
2022-08-22T08:41:01.220Z,80.47
2022-08-22T08:42:01.219Z,80.47
2022-08-22T08:43:01.214Z,79.99
2022-08-22T08:44:01.213Z,80.32
2022-08-22T08:45:01.210Z,81.10
2022-08-22T08:46:01.211Z,80.13
2022-08-22T08:47:01.206Z,80.90
2022-08-22T08:48:01.566Z,80.52
2022-08-22T08:49:01.197Z,80.32
2022-08-22T08:50:01.199Z,80.22
2022-08-22T08:52:01.190Z,80.03
2022-08-22T08:53:01.187Z,80.13
2022-08-22T08:54:01.186Z,79.84
2022-08-22T08:55:01.340Z,80.32
2022-08-22T08:56:01.183Z,80.22
2022-08-22T08:57:01.176Z,81.23
2022-08-22T08:59:01.170Z,79.39
2022-08-22T09:00:01.171Z,79.25
2022-08-22T09:01:01.998Z,78.48
2022-08-22T09:02:01.167Z,79.60
2022-08-22T09:03:01.163Z,80.38
2022-08-22T09:04:01.183Z,80.28
2022-08-22T09:05:01.156Z,79.80
2022-08-22T09:06:01.156Z,80.96
2022-08-22T09:07:01.593Z,80.77
2022-08-22T09:08:01.327Z,81.05
2022-08-22T09:09:01.149Z,79.60
2022-08-22T09:10:01.160Z,80.32
2022-08-22T09:11:01.142Z,79.74
2022-08-22T09:12:01.140Z,79.35
2022-08-22T09:13:11.650Z,77.80
2022-08-22T09:14:01.136Z,77.32
2022-08-22T09:15:01.130Z,77.55
2022-08-22T09:16:04.916Z,77.55
2022-08-22T09:17:01.127Z,76.68
2022-08-22T09:18:01.237Z,76.10
2022-08-22T09:19:01.125Z,75.81
2022-08-22T09:20:01.119Z,76.87
2022-08-22T09:21:01.118Z,76.10
2022-08-22T09:22:01.117Z,76.29
2022-08-22T09:23:01.111Z,75.81
2022-08-22T09:24:01.111Z,75.23
2022-08-22T09:25:01.106Z,75.42
2022-08-22T09:26:01.110Z,75.23
2022-08-22T09:27:01.102Z,75.03
2022-08-22T09:28:01.436Z,74.97
2022-08-22T09:29:01.096Z,74.77
2022-08-22T09:30:01.095Z,75.55
2022-08-22T09:31:01.093Z,74.68
2022-08-22T09:32:01.095Z,74.10
2022-08-22T09:33:01.088Z,74.10
2022-08-22T09:34:01.087Z,74.00
2022-08-22T09:35:01.083Z,74.77
2022-08-22T09:36:01.124Z,74.68
2022-08-22T09:37:01.079Z,72.93
2022-08-22T09:38:01.341Z,73.03
2022-08-22T09:39:01.074Z,72.64
2022-08-22T09:40:01.117Z,72.25
2022-08-22T09:41:01.070Z,72.87
2022-08-22T09:42:01.121Z,72.55
2022-08-22T09:43:01.346Z,72.19
2022-08-22T09:44:01.066Z,71.90
2022-08-22T09:45:01.061Z,72.19
2022-08-22T09:46:02.162Z,72.29
2022-08-22T09:47:01.055Z,69.48
2022-08-22T09:48:07.040Z,69.48
2022-08-22T09:49:01.053Z,69.34
2022-08-22T09:50:01.056Z,69.73
2022-08-22T09:51:08.458Z,70.31
2022-08-22T09:52:05.121Z,70.73
2022-08-22T09:53:01.076Z,71.51
2022-08-22T09:54:01.045Z,71.32
2022-08-22T09:55:01.040Z,69.76
2022-08-22T09:56:01.042Z,69.09
2022-08-22T09:57:01.038Z,68.02
2022-08-22T09:58:01.037Z,66.66
2022-08-22T09:59:01.041Z,65.79
2022-08-22T10:00:01.032Z,67.05
2022-08-22T10:01:01.079Z,67.73
2022-08-22T10:02:01.029Z,67.73
2022-08-22T10:03:01.440Z,68.89
2022-08-22T10:04:01.025Z,68.51
2022-08-22T10:05:01.021Z,68.73
2022-08-22T10:06:01.022Z,68.79
2022-08-22T10:07:01.020Z,68.31
2022-08-22T10:08:01.018Z,69.18
2022-08-22T10:09:01.013Z,68.41
2022-08-22T10:10:01.028Z,67.66
2022-08-22T10:11:01.009Z,66.89
2022-08-22T10:12:01.061Z,65.11
2022-08-22T10:13:01.271Z,65.30
2022-08-22T10:14:01.414Z,66.44
2022-08-22T10:15:01.002Z,65.85
2022-08-22T10:16:01.002Z,63.82
2022-08-22T10:17:00.999Z,61.94
2022-08-22T10:18:01.004Z,61.78
2022-08-22T10:19:00.995Z,63.53
2022-08-22T10:20:00.995Z,64.59
2022-08-22T10:21:00.991Z,63.04
2022-08-22T10:22:00.991Z,64.50
2022-08-22T10:23:01.213Z,64.11
2022-08-22T10:24:00.987Z,61.10
2022-08-22T10:25:00.983Z,61.19
2022-08-22T10:26:00.985Z,60.45
2022-08-22T10:27:00.978Z,60.55
2022-08-22T10:28:01.029Z,62.29
2022-08-22T10:29:00.977Z,63.46
2022-08-22T10:30:00.984Z,63.95
2022-08-22T10:31:00.973Z,61.32
2022-08-22T10:32:03.744Z,59.09
2022-08-22T10:33:01.365Z,58.34
2022-08-22T10:34:00.968Z,57.28
2022-08-22T10:35:00.963Z,56.30
2022-08-22T10:36:00.965Z,56.50
2022-08-22T10:37:00.964Z,57.57
2022-08-22T10:38:00.960Z,57.08
2022-08-22T10:39:02.060Z,56.21
2022-08-22T10:40:01.005Z,56.50
2022-08-22T10:41:00.955Z,57.40
2022-08-22T10:42:00.955Z,58.28
2022-08-22T10:43:01.078Z,56.92
2022-08-22T10:44:01.486Z,56.34
2022-08-22T10:45:00.944Z,55.17
2022-08-22T10:46:00.946Z,54.58
2022-08-22T10:47:00.942Z,55.27
2022-08-22T10:48:00.941Z,57.01
2022-08-22T10:49:05.786Z,57.31
2022-08-22T10:50:00.939Z,56.72
2022-08-22T10:51:00.934Z,57.69
2022-08-22T10:52:09.719Z,57.79
2022-08-22T10:53:01.241Z,58.28
2022-08-22T10:54:00.939Z,58.08
2022-08-22T10:55:00.944Z,58.05
2022-08-22T10:56:00.929Z,57.40
2022-08-22T10:57:00.925Z,57.31
2022-08-22T10:58:00.925Z,56.72
2022-08-22T10:59:00.922Z,58.28
2022-08-22T11:00:00.929Z,57.53
2022-08-22T11:01:00.965Z,56.95
2022-08-22T11:02:01.047Z,56.72
2022-08-22T11:03:01.113Z,57.43
2022-08-22T11:04:00.918Z,56.56
2022-08-22T11:05:00.914Z,56.75
2022-08-22T11:06:00.914Z,55.88
2022-08-22T11:07:00.912Z,56.56
2022-08-22T11:08:00.909Z,57.53
2022-08-22T11:09:00.907Z,55.58
2022-08-22T11:10:01.485Z,54.90
2022-08-22T11:11:00.903Z,54.54
2022-08-22T11:12:00.905Z,54.61
2022-08-22T11:13:01.177Z,54.74
2022-08-22T11:14:00.903Z,52.89
2022-08-22T11:15:00.898Z,52.11
2022-08-22T11:16:00.900Z,51.92
2022-08-22T11:17:00.899Z,52.59
2022-08-22T11:18:00.901Z,52.21
2022-08-22T11:19:02.742Z,52.40
2022-08-22T11:20:00.894Z,52.82
2022-08-22T11:21:00.891Z,52.98
2022-08-22T11:22:00.893Z,52.79
2022-08-22T11:23:01.068Z,52.89
2022-08-22T11:24:00.890Z,52.89
2022-08-22T11:25:04.167Z,53.38
2022-08-22T11:26:00.891Z,51.70
2022-08-22T11:27:00.885Z,51.11
2022-08-22T11:28:00.887Z,52.09
2022-08-22T11:29:02.847Z,52.76
2022-08-22T11:30:01.379Z,53.38
2022-08-22T11:31:00.882Z,51.82
2022-08-22T11:32:05.849Z,52.11
2022-08-22T11:33:01.293Z,53.08
2022-08-22T11:34:00.887Z,51.23
2022-08-22T11:35:00.876Z,51.23
2022-08-22T11:36:04.636Z,51.23
2022-08-22T11:37:00.977Z,52.11
2022-08-22T11:38:00.877Z,51.33
2022-08-22T11:39:01.075Z,50.95
2022-08-22T11:40:00.918Z,50.19
2022-08-22T11:41:00.871Z,49.87
2022-08-22T11:42:00.873Z,51.04
2022-08-22T11:43:03.096Z,50.36
2022-08-22T11:44:00.870Z,49.97
2022-08-22T11:45:00.868Z,48.80
2022-08-22T11:46:00.868Z,48.80
2022-08-22T11:47:00.865Z,49.10
2022-08-22T11:48:00.868Z,50.09
2022-08-22T11:49:01.229Z,50.56
2022-08-22T11:50:00.866Z,50.97
2022-08-22T11:51:00.861Z,51.36
2022-08-22T11:52:00.862Z,51.17
2022-08-22T11:53:01.539Z,51.45
2022-08-22T11:54:00.861Z,51.55
2022-08-22T11:55:00.859Z,51.14
2022-08-22T11:56:00.859Z,51.04
2022-08-22T11:57:00.857Z,51.43
2022-08-22T11:58:00.858Z,49.87
2022-08-22T11:59:00.855Z,50.26
2022-08-22T12:00:00.890Z,50.43
2022-08-22T12:01:00.853Z,50.53
2022-08-22T12:02:00.894Z,47.34
2022-08-22T12:03:01.141Z,46.18
2022-08-22T12:04:00.851Z,46.96
2022-08-22T12:05:00.850Z,46.18
2022-08-22T12:06:00.850Z,45.89
2022-08-22T12:07:00.846Z,45.98
2022-08-22T12:08:00.848Z,44.43
2022-08-22T12:09:00.846Z,43.95
2022-08-22T12:10:00.844Z,45.31
2022-08-22T12:11:00.845Z,45.77
2022-08-22T12:12:00.843Z,46.64
2022-08-22T12:13:01.261Z,47.74
2022-08-22T12:14:02.405Z,47.61
2022-08-22T12:15:00.840Z,47.71
2022-08-22T12:16:00.841Z,48.30
2022-08-22T12:17:00.840Z,49.29
2022-08-22T12:18:01.712Z,48.61
2022-08-22T12:19:00.836Z,48.13
2022-08-22T12:20:16.259Z,49.10
2022-08-22T12:21:00.835Z,48.44
2022-08-22T12:22:00.833Z,46.69
2022-08-22T12:23:01.128Z,48.15
2022-08-22T12:24:00.829Z,48.63
2022-08-22T12:25:02.917Z,49.02
2022-08-22T12:26:00.829Z,49.41
2022-08-22T12:27:00.827Z,50.58
2022-08-22T12:28:00.825Z,50.09
2022-08-22T12:29:00.827Z,49.12
2022-08-22T12:30:00.824Z,49.99
2022-08-22T12:31:00.833Z,49.71
2022-08-22T12:32:00.822Z,50.78
2022-08-22T12:33:01.055Z,51.07
2022-08-22T12:34:00.819Z,51.33
2022-08-22T12:35:00.835Z,51.72
2022-08-22T12:36:00.819Z,51.33
2022-08-22T12:37:00.823Z,50.95
2022-08-22T12:38:00.816Z,51.14
2022-08-22T12:39:00.817Z,51.23
2022-08-22T12:40:00.867Z,51.17
2022-08-22T12:41:00.816Z,51.17
2022-08-22T12:42:00.812Z,50.29
2022-08-22T12:43:00.813Z,50.36
2022-08-22T12:44:00.811Z,50.68
2022-08-22T12:45:00.812Z,50.87
2022-08-22T12:46:00.810Z,50.78
2022-08-22T12:47:00.810Z,51.17
2022-08-22T12:48:00.989Z,51.04
2022-08-22T12:49:00.807Z,51.07